createdAt,value
2018-04-23T00:00:13.683Z,84.30
2018-04-23T00:02:41.222Z,84.10
2018-04-23T00:05:08.794Z,84.20
2018-04-23T00:07:36.337Z,83.90
2018-04-23T00:10:03.911Z,84.00
2018-04-23T00:12:31.441Z,84.30
2018-04-23T00:14:58.972Z,84.50
2018-04-23T00:17:27.297Z,85.70
2018-04-23T00:19:54.841Z,85.60
2018-04-23T00:22:22.399Z,86.00
2018-04-23T00:24:49.931Z,86.20
2018-04-23T00:27:18.280Z,87.30
2018-04-23T00:29:45.835Z,87.20
2018-04-23T00:32:13.389Z,87.10
2018-04-23T00:34:40.939Z,87.50
2018-04-23T00:37:08.492Z,87.80
2018-04-23T00:39:36.028Z,88.30
2018-04-23T00:42:03.577Z,88.50
2018-04-23T00:44:31.882Z,90.00
2018-04-23T00:46:59.429Z,89.10
2018-04-23T00:49:26.977Z,89.70
2018-04-23T00:51:55.323Z,90.40
2018-04-23T00:54:22.859Z,90.40
2018-04-23T00:56:50.392Z,90.50
2018-04-23T00:59:17.952Z,90.80
2018-04-23T01:01:45.491Z,90.90
2018-04-23T01:04:13.808Z,91.50
2018-04-23T01:06:41.340Z,91.40
2018-04-23T01:09:09.665Z,91.60
2018-04-23T01:11:37.198Z,91.60
2018-04-23T01:14:04.752Z,91.80
2018-04-23T01:16:32.292Z,91.90
2018-04-23T01:19:00.608Z,92.10
2018-04-23T01:21:28.151Z,92.10
2018-04-23T01:23:55.704Z,92.30
2018-04-23T01:26:23.238Z,92.30
2018-04-23T01:28:51.565Z,92.70
2018-04-23T01:31:19.092Z,92.60
2018-04-23T01:33:47.420Z,92.60
2018-04-23T01:36:14.951Z,92.60
2018-04-23T01:38:42.518Z,92.90
2018-04-23T01:41:10.044Z,93.00
2018-04-23T01:43:37.587Z,93.00
2018-04-23T01:46:05.145Z,93.00
2018-04-23T01:48:32.759Z,93.00
2018-04-23T01:51:00.320Z,93.20
2018-04-23T01:53:27.857Z,93.40
2018-04-23T01:55:55.434Z,93.50
2018-04-23T01:58:22.977Z,93.90
2018-04-23T02:00:50.535Z,94.00
2018-04-23T02:03:18.068Z,93.60
2018-04-23T02:05:45.631Z,93.60
2018-04-23T02:08:13.963Z,93.50
2018-04-23T02:10:41.556Z,93.40
2018-04-23T02:13:09.082Z,93.50
2018-04-23T02:15:36.645Z,93.50
2018-04-23T02:18:04.218Z,93.30
2018-04-23T02:20:31.775Z,93.30
2018-04-23T02:22:59.304Z,93.30
2018-04-23T02:25:26.894Z,93.10
2018-04-23T02:27:54.427Z,93.00
2018-04-23T02:30:21.957Z,93.20
2018-04-23T02:32:50.285Z,93.10
2018-04-23T02:35:17.824Z,93.00
2018-04-23T02:37:45.407Z,93.00
2018-04-23T02:40:12.948Z,93.20
2018-04-23T02:42:40.507Z,93.30
2018-04-23T02:45:08.044Z,93.40
2018-04-23T02:47:36.367Z,93.70
2018-04-23T02:50:03.898Z,93.70
2018-04-23T02:52:31.461Z,93.90
2018-04-23T02:54:59.001Z,94.20
2018-04-23T02:57:26.570Z,94.40
2018-04-23T02:59:54.122Z,94.60
2018-04-23T03:02:21.693Z,94.80
2018-04-23T03:04:49.248Z,95.00
2018-04-23T03:07:16.919Z,95.30
2018-04-23T03:09:44.484Z,95.50
2018-04-23T03:12:12.011Z,95.40
2018-04-23T03:14:39.559Z,96.00
2018-04-23T03:17:07.102Z,95.90
2018-04-23T03:19:34.658Z,96.10
2018-04-23T03:22:02.202Z,96.20
2018-04-23T03:24:29.753Z,96.30
2018-04-23T03:26:57.289Z,96.40
2018-04-23T03:29:25.616Z,96.60
2018-04-23T03:31:53.268Z,96.60
2018-04-23T03:34:20.827Z,96.80
2018-04-23T03:36:48.356Z,96.90
2018-04-23T03:39:15.964Z,97.10
2018-04-23T03:41:43.624Z,97.40
2018-04-23T03:44:11.187Z,97.60
2018-04-23T03:46:38.714Z,97.50
2018-04-23T03:49:06.278Z,97.70
2018-04-23T03:51:33.827Z,97.80
2018-04-23T03:54:01.425Z,97.90
2018-04-23T03:56:28.952Z,98.10
2018-04-23T03:58:56.968Z,98.70
2018-04-23T04:01:25.259Z,98.60
2018-04-23T04:03:52.803Z,98.50
2018-04-23T04:06:20.375Z,98.60
2018-04-23T04:08:47.928Z,98.60
2018-04-23T04:11:15.479Z,98.60
2018-04-23T04:13:54.842Z,98.60
2018-04-23T04:16:34.314Z,98.60
2018-04-23T04:19:01.860Z,98.50
2018-04-23T04:21:30.186Z,98.60
2018-04-23T04:23:58.476Z,98.50
2018-04-23T04:26:26.023Z,98.60
2018-04-23T04:28:53.556Z,98.40
2018-04-23T04:31:21.933Z,98.40
2018-04-23T04:33:49.470Z,98.40
2018-04-23T04:36:17.791Z,98.30
2018-04-23T04:38:45.326Z,98.20
2018-04-23T04:41:12.901Z,97.60
2018-04-23T04:43:40.445Z,96.80
2018-04-23T04:46:07.987Z,95.90
2018-04-23T04:48:36.321Z,95.10
2018-04-23T04:51:04.619Z,95.20
2018-04-23T04:53:32.181Z,95.00
2018-04-23T04:55:59.715Z,94.80
2018-04-23T04:58:27.271Z,93.40
2018-04-23T05:00:54.810Z,92.20
2018-04-23T05:03:22.353Z,91.10
2018-04-23T05:05:50.697Z,90.80
2018-04-23T05:08:18.248Z,90.80
2018-04-23T05:10:45.781Z,90.70
2018-04-23T05:13:13.326Z,90.20
2018-04-23T05:15:40.865Z,89.30
2018-04-23T05:18:09.189Z,86.80
2018-04-23T05:20:36.769Z,86.70
2018-04-23T05:23:04.321Z,84.80
2018-04-23T05:25:31.895Z,84.60
2018-04-23T05:27:59.428Z,84.50
2018-04-23T05:30:27.006Z,82.90
2018-04-23T05:32:54.545Z,82.30
2018-04-23T05:35:22.104Z,82.50
2018-04-23T05:37:49.631Z,82.40
2018-04-23T05:40:17.964Z,82.90
2018-04-23T05:42:45.567Z,82.90
2018-04-23T05:45:13.909Z,80.50
2018-04-23T05:47:41.454Z,80.50
2018-04-23T05:50:09.050Z,79.00
2018-04-23T05:52:37.378Z,77.00
2018-04-23T05:55:04.976Z,76.90
2018-04-23T05:57:32.509Z,78.20
2018-04-23T06:00:00.100Z,78.10
2018-04-23T06:02:27.647Z,79.00
2018-04-23T06:04:55.188Z,79.50
2018-04-23T06:07:22.757Z,78.50
2018-04-23T06:09:50.294Z,77.70
2018-04-23T06:12:17.869Z,78.20
2018-04-23T06:14:45.413Z,77.10
2018-04-23T06:17:12.981Z,75.30
2018-04-23T06:19:40.594Z,73.00
2018-04-23T06:22:08.137Z,69.50
2018-04-23T06:24:35.662Z,71.00
2018-04-23T06:27:03.223Z,69.40
2018-04-23T06:29:30.768Z,72.70
2018-04-23T06:31:58.345Z,76.40
2018-04-23T06:34:25.884Z,78.80
2018-04-23T06:36:53.440Z,80.00
2018-04-23T06:39:21.908Z,81.30
2018-04-23T06:41:50.249Z,83.60
2018-04-23T06:44:17.779Z,83.60
2018-04-23T06:46:45.376Z,83.50
2018-04-23T06:49:12.915Z,83.40
2018-04-23T06:51:40.470Z,84.90
2018-04-23T06:54:08.031Z,84.60
2018-04-23T06:56:35.586Z,84.90
2018-04-23T06:59:03.146Z,85.20
2018-04-23T07:01:30.743Z,86.20
2018-04-23T07:03:58.303Z,85.60
2018-04-23T07:06:25.849Z,85.20
2018-04-23T07:08:53.400Z,86.30
2018-04-23T07:11:21.710Z,85.50
2018-04-23T07:13:50.041Z,86.20
2018-04-23T07:16:17.602Z,86.10
2018-04-23T07:18:45.164Z,85.80
2018-04-23T07:21:12.719Z,85.40
2018-04-23T07:23:40.285Z,85.00
2018-04-23T07:26:07.827Z,85.00
2018-04-23T07:28:35.383Z,84.00
2018-04-23T07:31:02.929Z,84.00
2018-04-23T07:33:30.539Z,83.30
2018-04-23T07:35:58.076Z,83.60
2018-04-23T07:38:25.613Z,85.80
2018-04-23T07:40:53.168Z,85.40
2018-04-23T07:43:21.460Z,83.60
2018-04-23T07:45:49.772Z,83.50
2018-04-23T07:48:17.322Z,80.90
2018-04-23T07:50:44.874Z,74.10
2018-04-23T07:53:12.473Z,71.90
2018-04-23T07:55:40.051Z,66.90
2018-04-23T07:58:08.372Z,61.40
2018-04-23T08:00:35.965Z,61.30
2018-04-23T08:03:03.502Z,61.40
2018-04-23T08:05:31.062Z,61.60
2018-04-23T08:07:58.632Z,61.10
2018-04-23T08:10:26.281Z,61.40
2018-04-23T08:12:53.823Z,60.50
2018-04-23T08:15:21.381Z,58.90
2018-04-23T08:17:48.963Z,58.40
2018-04-23T08:20:16.542Z,58.60
2018-04-23T08:22:44.077Z,59.20
2018-04-23T08:25:11.628Z,57.60
2018-04-23T08:27:39.176Z,58.60
2018-04-23T08:30:06.735Z,54.40
2018-04-23T08:32:34.311Z,56.60
2018-04-23T08:35:01.866Z,58.10
2018-04-23T08:37:29.670Z,60.40
2018-04-23T08:39:57.164Z,57.80
2018-04-23T08:42:25.484Z,58.40
2018-04-23T08:44:53.025Z,58.40
2018-04-23T08:47:20.663Z,59.30
2018-04-23T08:49:48.164Z,60.30
2018-04-23T08:52:16.717Z,61.70
2018-04-23T08:54:45.028Z,59.70
2018-04-23T08:57:12.604Z,59.80
2018-04-23T08:59:40.137Z,60.40
2018-04-23T09:02:07.663Z,59.20
2018-04-23T09:04:35.989Z,58.50
2018-04-23T09:07:03.535Z,58.90
2018-04-23T09:09:31.093Z,59.70
2018-04-23T09:11:58.623Z,62.30
2018-04-23T09:14:26.948Z,65.90
2018-04-23T09:16:54.512Z,65.90
2018-04-23T09:19:22.081Z,65.70
2018-04-23T09:21:49.637Z,66.70
2018-04-23T09:24:17.217Z,66.90
2018-04-23T09:26:44.760Z,68.10
2018-04-23T09:29:12.333Z,69.60
2018-04-23T09:31:39.887Z,69.80
2018-04-23T09:34:07.450Z,70.20
2018-04-23T09:36:34.992Z,71.50
2018-04-23T09:39:02.627Z,70.90
2018-04-23T09:41:30.129Z,70.70
2018-04-23T09:43:57.737Z,71.80
2018-04-23T09:46:26.042Z,70.90
2018-04-23T09:48:53.573Z,70.80
2018-04-23T09:51:21.907Z,70.00
2018-04-23T09:53:49.449Z,69.90
2018-04-23T09:56:17.013Z,71.80
2018-04-23T09:58:44.540Z,72.00
2018-04-23T10:01:17.988Z,73.30
2018-04-23T10:03:55.426Z,75.90
2018-04-23T10:06:23.027Z,76.50
2018-04-23T10:08:50.590Z,77.80
2018-04-23T10:11:18.139Z,79.90
2018-04-23T10:13:46.402Z,81.40
2018-04-23T10:16:13.981Z,83.30
2018-04-23T10:18:41.547Z,84.20
2018-04-23T10:21:09.111Z,82.90
2018-04-23T10:23:36.660Z,84.00
2018-04-23T10:26:04.221Z,82.80
2018-04-23T10:28:31.779Z,85.10
2018-04-23T10:30:59.361Z,85.10
2018-04-23T10:33:26.905Z,86.00
2018-04-23T10:35:54.445Z,87.30
2018-04-23T10:38:22.011Z,86.80
2018-04-23T10:40:49.553Z,87.20
2018-04-23T10:43:17.128Z,87.80
2018-04-23T10:45:44.668Z,86.30
2018-04-23T10:48:12.241Z,87.70
2018-04-23T10:50:39.788Z,89.20
2018-04-23T10:53:08.106Z,90.00
2018-04-23T10:55:35.668Z,89.90
2018-04-23T10:58:03.227Z,89.00
2018-04-23T11:00:30.761Z,89.20
2018-04-23T11:02:58.349Z,87.30
2018-04-23T11:05:25.908Z,85.50
2018-04-23T11:07:53.631Z,86.60
2018-04-23T11:10:21.957Z,85.00
2018-04-23T11:12:49.523Z,84.90
2018-04-23T11:15:17.067Z,84.00
2018-04-23T11:17:44.635Z,82.50
2018-04-23T11:20:12.193Z,82.50
2018-04-23T11:22:39.768Z,79.60
2018-04-23T11:25:07.343Z,79.70
2018-04-23T11:27:34.871Z,76.60
2018-04-23T11:30:03.455Z,77.00
2018-04-23T11:32:31.002Z,76.70
2018-04-23T11:34:58.560Z,75.40
2018-04-23T11:37:26.105Z,74.00
2018-04-23T11:39:53.673Z,73.50
2018-04-23T11:42:21.225Z,70.10
2018-04-23T11:44:48.792Z,73.50
2018-04-23T11:47:16.330Z,73.40
2018-04-23T11:49:44.676Z,75.10
2018-04-23T11:52:12.219Z,75.20
2018-04-23T11:54:39.806Z,72.90
2018-04-23T11:57:07.344Z,75.10
2018-04-23T11:59:34.915Z,72.90
2018-04-23T12:02:02.447Z,75.30
2018-04-23T12:04:30.007Z,74.60
2018-04-23T12:06:57.604Z,76.30
2018-04-23T12:09:25.146Z,73.60
2018-04-23T12:11:52.717Z,74.00
2018-04-23T12:14:21.045Z,75.00
2018-04-23T12:16:48.608Z,75.80
2018-04-23T12:19:16.169Z,76.00
2018-04-23T12:21:43.765Z,75.70
2018-04-23T12:24:11.300Z,73.00
2018-04-23T12:26:38.856Z,74.30
2018-04-23T12:29:06.384Z,75.00
2018-04-23T12:31:34.724Z,75.60
2018-04-23T12:34:02.260Z,75.50
2018-04-23T12:36:29.842Z,75.60
2018-04-23T12:38:57.388Z,74.30
2018-04-23T12:41:25.051Z,72.70
2018-04-23T12:43:52.600Z,73.10
2018-04-23T12:46:20.249Z,74.30
2018-04-23T12:48:47.749Z,74.20
2018-04-23T12:51:15.318Z,74.80
2018-04-23T12:53:42.878Z,74.90
2018-04-23T12:56:10.438Z,74.10
2018-04-23T12:58:38.002Z,74.90
2018-04-23T13:01:05.545Z,73.30
2018-04-23T13:03:33.095Z,74.40
2018-04-23T13:06:00.625Z,74.70
2018-04-23T13:08:28.193Z,75.20
2018-04-23T13:10:55.738Z,75.00
2018-04-23T13:13:24.066Z,71.50
2018-04-23T13:15:51.605Z,71.50
2018-04-23T13:18:19.189Z,70.10
2018-04-23T13:20:46.733Z,71.30
2018-04-23T13:23:14.316Z,71.20
2018-04-23T13:25:41.863Z,68.70
2018-04-23T13:28:09.421Z,69.70
2018-04-23T13:30:36.989Z,70.20
2018-04-23T13:33:04.532Z,70.60
2018-04-23T13:35:32.088Z,71.40
2018-04-23T13:37:59.625Z,70.80
2018-04-23T13:40:27.184Z,71.20
2018-04-23T13:42:54.752Z,71.50
2018-04-23T13:45:22.309Z,72.20
2018-04-23T13:47:49.855Z,72.20
2018-04-23T13:50:18.198Z,72.70
2018-04-23T13:52:45.734Z,72.60
2018-04-23T13:55:13.287Z,72.60
2018-04-23T13:57:40.832Z,73.00
2018-04-23T14:00:08.402Z,73.50
2018-04-23T14:02:36.051Z,72.20
2018-04-23T14:05:03.655Z,73.60
2018-04-23T14:07:31.194Z,73.30
2018-04-23T14:09:58.787Z,71.80
2018-04-23T14:12:26.331Z,71.00
2018-04-23T14:14:53.921Z,71.00
2018-04-23T14:17:21.510Z,71.30
2018-04-23T14:19:49.828Z,69.20
2018-04-23T14:22:17.389Z,69.00
2018-04-23T14:24:44.924Z,69.20
2018-04-23T14:27:12.540Z,69.30
2018-04-23T14:29:40.079Z,68.40
2018-04-23T14:32:07.659Z,69.80
2018-04-23T14:34:35.210Z,70.00
2018-04-23T14:37:02.819Z,68.20
2018-04-23T14:39:30.396Z,68.50
2018-04-23T14:41:57.951Z,67.00
2018-04-23T14:44:25.497Z,67.60
2018-04-23T14:46:53.052Z,66.70
2018-04-23T14:49:20.592Z,65.80
2018-04-23T14:51:48.178Z,65.10
2018-04-23T14:54:15.727Z,65.80
2018-04-23T14:56:44.052Z,66.00
2018-04-23T14:59:11.608Z,66.00
2018-04-23T15:01:39.151Z,65.40
2018-04-23T15:04:07.628Z,65.30
2018-04-23T15:06:35.185Z,66.80
2018-04-23T15:09:02.746Z,67.50
2018-04-23T15:11:30.277Z,67.30
2018-04-23T15:13:58.611Z,67.20
2018-04-23T15:16:26.156Z,67.20
2018-04-23T15:18:53.830Z,67.20
2018-04-23T15:21:21.365Z,65.80
2018-04-23T15:23:48.945Z,66.10
2018-04-23T15:26:16.489Z,67.30
2018-04-23T15:28:44.057Z,66.40
2018-04-23T15:31:11.612Z,65.50
2018-04-23T15:33:39.164Z,65.30
2018-04-23T15:36:06.711Z,65.00
2018-04-23T15:38:35.051Z,66.20
2018-04-23T15:41:02.631Z,66.20
2018-04-23T15:43:30.204Z,66.70
2018-04-23T15:45:58.550Z,66.60
2018-04-23T15:48:26.107Z,66.50
2018-04-23T15:50:53.682Z,66.40
2018-04-23T15:53:21.220Z,66.30
2018-04-23T15:55:49.602Z,65.50
2018-04-23T15:58:17.143Z,65.50
2018-04-23T16:00:44.809Z,65.00
2018-04-23T16:03:12.383Z,64.80
2018-04-23T16:05:39.999Z,64.80
2018-04-23T16:08:08.340Z,63.00
2018-04-23T16:10:36.015Z,62.90
2018-04-23T16:13:03.570Z,62.10
2018-04-23T16:15:31.174Z,59.90
2018-04-23T16:17:58.729Z,58.40
2018-04-23T16:20:26.304Z,58.30
2018-04-23T16:22:53.853Z,57.00
2018-04-23T16:25:21.434Z,56.20
2018-04-23T16:27:48.996Z,56.80
2018-04-23T16:30:16.577Z,56.40
2018-04-23T16:32:44.130Z,54.90
2018-04-23T16:35:11.676Z,53.80
2018-04-23T16:37:39.338Z,54.40
2018-04-23T16:40:06.886Z,52.90
2018-04-23T16:42:34.463Z,53.10
2018-04-23T16:45:02.005Z,54.30
2018-04-23T16:47:29.690Z,54.90
2018-04-23T16:49:57.223Z,54.60
2018-04-23T16:52:24.811Z,56.30
2018-04-23T16:54:52.366Z,57.40
2018-04-23T16:57:20.933Z,58.70
2018-04-23T16:59:48.472Z,59.30
2018-04-23T17:02:16.802Z,60.10
2018-04-23T17:04:44.348Z,60.10
2018-04-23T17:07:11.892Z,60.00
2018-04-23T17:09:39.426Z,60.00
2018-04-23T17:12:07.866Z,59.70
2018-04-23T17:14:35.402Z,59.60
2018-04-23T17:17:02.938Z,59.90
2018-04-23T17:19:31.265Z,58.00
2018-04-23T17:21:58.795Z,58.00
2018-04-23T17:24:26.470Z,58.10
2018-04-23T17:26:54.003Z,58.20
2018-04-23T17:29:21.578Z,59.30
2018-04-23T17:31:49.112Z,59.00
2018-04-23T17:34:17.447Z,60.10
2018-04-23T17:36:44.992Z,60.80
2018-04-23T17:39:12.622Z,60.00
2018-04-23T17:41:41.020Z,60.90
2018-04-23T17:44:08.571Z,60.90
2018-04-23T17:46:36.113Z,61.70
2018-04-23T17:49:04.465Z,61.10
2018-04-23T17:51:32.023Z,61.10
2018-04-23T17:53:59.579Z,61.40
2018-04-23T17:56:27.893Z,62.10
2018-04-23T17:58:56.223Z,62.80
2018-04-23T18:01:23.768Z,62.80
2018-04-23T18:03:51.305Z,63.90
2018-04-23T18:06:18.862Z,63.80
2018-04-23T18:08:46.420Z,63.80
2018-04-23T18:11:14.748Z,65.00
2018-04-23T18:13:42.305Z,65.00
2018-04-23T18:16:09.865Z,66.20
2018-04-23T18:18:37.397Z,67.30
2018-04-23T18:21:04.972Z,67.80
2018-04-23T18:23:32.515Z,68.70
2018-04-23T18:26:00.101Z,70.00
2018-04-23T18:28:27.628Z,70.80
2018-04-23T18:30:55.188Z,71.40
2018-04-23T18:33:22.734Z,72.40
2018-04-23T18:35:51.058Z,73.50
2018-04-23T18:38:18.618Z,73.60
2018-04-23T18:40:47.010Z,74.80
2018-04-23T18:43:14.548Z,74.70
2018-04-23T18:45:42.141Z,75.10
2018-04-23T18:48:09.707Z,75.90
2018-04-23T18:50:37.317Z,76.20
2018-04-23T18:53:05.620Z,77.40
2018-04-23T18:55:33.167Z,77.40
2018-04-23T18:58:00.759Z,77.60
2018-04-23T19:00:28.302Z,78.90
2018-04-23T19:02:55.867Z,78.40
2018-04-23T19:05:24.420Z,78.60
2018-04-23T19:07:51.978Z,79.40
2018-04-23T19:10:19.511Z,79.60
2018-04-23T19:12:48.816Z,80.00
2018-04-23T19:15:16.372Z,79.90
2018-04-23T19:17:44.696Z,80.70
2018-04-23T19:20:16.490Z,80.60
2018-04-23T19:22:44.781Z,81.00
2018-04-23T19:25:13.111Z,81.00
2018-04-23T19:27:40.678Z,81.00
2018-04-23T19:30:08.237Z,81.10
2018-04-23T19:32:35.817Z,81.50
2018-04-23T19:35:03.368Z,82.30
2018-04-23T19:37:30.944Z,82.40
2018-04-23T19:39:58.490Z,82.30
2018-04-23T19:42:26.035Z,82.90
2018-04-23T19:44:53.609Z,83.20
2018-04-23T19:47:21.928Z,84.20
2018-04-23T19:49:50.250Z,84.10
2018-04-23T19:52:17.802Z,84.00
2018-04-23T19:54:45.388Z,84.50
2018-04-23T19:57:12.939Z,85.10
2018-04-23T19:59:40.509Z,85.40
2018-04-23T20:02:08.053Z,86.00
2018-04-23T20:04:35.624Z,86.50
2018-04-23T20:07:03.176Z,86.90
2018-04-23T20:09:30.735Z,86.80
2018-04-23T20:11:58.290Z,87.10
2018-04-23T20:14:25.934Z,87.60
2018-04-23T20:16:53.499Z,87.20
2018-04-23T20:19:21.085Z,87.40
2018-04-23T20:21:48.642Z,87.30
2018-04-23T20:24:16.215Z,87.50
2018-04-23T20:26:43.792Z,88.20
2018-04-23T20:29:11.368Z,87.70
2018-04-23T20:31:39.703Z,87.80
2018-04-23T20:34:07.241Z,87.80
2018-04-23T20:36:34.796Z,87.90
2018-04-23T20:39:02.343Z,87.70
2018-04-23T20:41:30.668Z,88.30
2018-04-23T20:43:58.211Z,88.10
2018-04-23T20:46:25.797Z,88.30
2018-04-23T20:48:53.331Z,88.60
2018-04-23T20:51:21.472Z,88.70
2018-04-23T20:53:49.764Z,88.20
2018-04-23T20:56:18.089Z,88.30
2018-04-23T20:58:45.624Z,88.30
2018-04-23T21:01:13.214Z,88.30
2018-04-23T21:03:40.771Z,88.60
2018-04-23T21:06:08.328Z,88.00
2018-04-23T21:08:35.867Z,88.40
2018-04-23T21:11:03.421Z,88.30
2018-04-23T21:13:30.987Z,88.00
2018-04-23T21:15:58.589Z,88.00
2018-04-23T21:18:26.150Z,87.40
2018-04-23T21:20:53.694Z,86.70
2018-04-23T21:23:21.250Z,86.90
2018-04-23T21:25:48.798Z,86.10
2018-04-23T21:28:16.386Z,85.30
2018-04-23T21:30:43.948Z,84.00
2018-04-23T21:33:11.518Z,83.90
2018-04-23T21:35:39.072Z,83.80
2018-04-23T21:38:06.659Z,82.10
2018-04-23T21:40:34.204Z,81.70
2018-04-23T21:43:01.757Z,81.40
2018-04-23T21:45:29.329Z,80.30
2018-04-23T21:47:57.679Z,80.00
2018-04-23T21:50:25.321Z,79.90
2018-04-23T21:52:52.900Z,79.60
2018-04-23T21:55:20.442Z,79.50
2018-04-23T21:57:48.012Z,78.60
2018-04-23T22:00:15.566Z,78.10
2018-04-23T22:02:43.193Z,77.60
2018-04-23T22:05:10.675Z,78.30
2018-04-23T22:07:38.252Z,78.50
2018-04-23T22:10:05.814Z,78.60
2018-04-23T22:12:33.368Z,79.30
2018-04-23T22:15:00.985Z,78.60
2018-04-23T22:17:29.306Z,79.10
2018-04-23T22:19:56.849Z,79.10
2018-04-23T22:22:25.388Z,79.10
2018-04-23T22:24:52.960Z,79.30
2018-04-23T22:27:20.502Z,79.70
2018-04-23T22:29:48.081Z,79.70
2018-04-23T22:32:15.629Z,80.10
2018-04-23T22:34:43.182Z,80.50
2018-04-23T22:37:10.729Z,81.00
2018-04-23T22:39:38.303Z,80.90
2018-04-23T22:42:05.837Z,81.00
2018-04-23T22:44:33.396Z,81.40
2018-04-23T22:47:00.939Z,81.40
2018-04-23T22:49:28.480Z,81.50
2018-04-23T22:51:56.799Z,82.20
2018-04-23T22:54:24.336Z,82.30
2018-04-23T22:56:51.888Z,82.50
2018-04-23T22:59:19.432Z,83.10
2018-04-23T23:01:47.774Z,83.90
2018-04-23T23:04:15.315Z,83.70
2018-04-23T23:06:42.892Z,84.20
2018-04-23T23:09:10.450Z,84.70
2018-04-23T23:11:38.010Z,85.00
2018-04-23T23:14:05.536Z,85.60
2018-04-23T23:16:33.099Z,85.60
2018-04-23T23:19:00.643Z,86.20
2018-04-23T23:21:28.217Z,86.80
2018-04-23T23:23:55.764Z,86.70
2018-04-23T23:26:23.334Z,86.90
2018-04-23T23:28:50.865Z,87.40
2018-04-23T23:31:18.468Z,87.70
2018-04-23T23:33:46.016Z,89.20
2018-04-23T23:36:13.549Z,88.60
2018-04-23T23:38:41.874Z,89.20
2018-04-23T23:41:09.396Z,89.20
2018-04-23T23:43:37.717Z,89.70
2018-04-23T23:46:05.257Z,89.70
2018-04-23T23:48:32.833Z,89.80
2018-04-23T23:51:00.493Z,90.00
2018-04-23T23:53:28.053Z,90.30
2018-04-23T23:55:55.600Z,90.50
2018-04-23T23:58:23.166Z,90.60
